Time;durP1;ratioP1;P1;durP2;ratioP2;P2;SDS_P1;SDS_P2;PMS_P1;PMS_P2;Temp;Humidity;BMP_temperature;BMP_pressure;BME280_temperature;BME280_humidity;BME280_pressure;Samples;Min_cycle;Max_cycle;Signal;HPM_P1;HPM_P2
2023/04/12 00:01:36;;;;;;;;;;;;;;;9.75;61.56;93765.38;4194944;28;20328;-47
2023/04/12 00:03:38;;;;;;;;;;;;;;;9.78;61.68;93751.94;4194084;28;19950;-53
2023/04/12 00:05:45;;;;;;;;;;;;;;;9.89;61.45;93755.94;4194368;28;19928;-50
2023/04/12 00:07:48;;;;;;;;;;;;;;;9.79;61.28;93751.78;4194985;28;19928;-51
2023/04/12 00:09:49;;;;;;;;;;;;;;;9.81;61.26;93752.41;4194662;28;19977;-49
2023/04/12 00:11:51;;;;;;;;;;;;;;;9.83;61.39;93750.44;4193699;28;20295;-52
2023/04/12 00:13:53;;;;;;;;;;;;;;;9.79;61.68;93749.16;4194990;28;20292;-50
2023/04/12 00:15:55;;;;;;;;;;;;;;;9.88;61.09;93747.28;4194065;28;20538;-52
2023/04/12 00:17:56;;;;;;;;;;;;;;;9.84;61.51;93730.31;4193093;28;19925;-49
2023/04/12 00:19:58;;;;;;;;;;;;;;;9.79;61.16;93748.34;4194263;28;20005;-49
2023/04/12 00:22:00;;;;;;;;;;;;;;;9.72;61.07;93737.78;4195172;28;20007;-51
2023/04/12 00:24:01;;;;;;;;;;;;;;;9.75;61.53;93732.19;4194594;28;19928;-48
2023/04/12 00:26:03;;;;;;;;;;;;;;;9.75;60.96;93734.81;4193711;28;19954;-51
2023/04/12 00:28:05;;;;;;;;;;;;;;;9.74;60.97;93735.78;4193981;28;19955;-50
2023/04/12 00:30:07;;;;;;;;;;;;;;;9.78;61.03;93736.25;4193324;28;19964;-48
2023/04/12 00:32:08;;;;;;;;;;;;;;;9.70;61.10;93734.53;4193479;28;19929;-50
2023/04/12 00:34:10;;;;;;;;;;;;;;;9.65;61.42;93726.41;4192347;28;20269;-52
2023/04/12 00:36:11;;;;;;;;;;;;;;;9.70;61.69;93725.84;4194868;28;20257;-51
2023/04/12 00:38:15;;;;;;;;;;;;;;;9.72;61.51;93726.50;4186932;28;19925;-50
2023/04/12 00:40:16;;;;;;;;;;;;;;;9.80;60.67;93721.19;4193859;28;19986;-52
2023/04/12 00:42:18;;;;;;;;;;;;;;;9.84;60.47;93715.44;4193583;28;20571;-49
2023/04/12 00:44:19;;;;;;;;;;;;;;;9.82;60.94;93722.63;4191215;28;19924;-49
2023/04/12 00:46:21;;;;;;;;;;;;;;;9.76;60.99;93728.56;4184071;28;19925;-52
2023/04/12 00:48:23;;;;;;;;;;;;;;;9.82;60.72;93724.44;4191810;28;19925;-50
2023/04/12 00:50:24;;;;;;;;;;;;;;;9.80;61.09;93731.66;4192796;28;19929;-51
2023/04/12 00:52:27;;;;;;;;;;;;;;;9.84;61.10;93720.66;4184561;28;19932;-47
2023/04/12 00:54:37;;;;;;;;;;;;;;;9.90;60.59;93718.34;4192679;28;20438;-50
2023/04/12 00:56:39;;;;;;;;;;;;;;;9.82;60.67;93716.59;4191765;28;19924;-49
2023/04/12 00:58:40;;;;;;;;;;;;;;;9.78;60.75;93729.22;4192064;28;19948;-50
2023/04/12 01:00:48;;;;;;;;;;;;;;;9.80;61.01;93714.16;4191847;28;19924;-50
2023/04/12 01:02:51;;;;;;;;;;;;;;;9.72;61.58;93721.28;4193293;28;20091;-52
2023/04/12 01:04:53;;;;;;;;;;;;;;;9.74;61.46;93722.72;4193931;28;19929;-50
2023/04/12 01:07:02;;;;;;;;;;;;;;;9.84;60.74;93712.81;4193821;28;19969;-46
2023/04/12 01:09:07;;;;;;;;;;;;;;;9.79;61.09;93722.19;4187373;28;19928;-51
2023/04/12 01:11:30;;;;;;;;;;;;;;;9.75;61.10;93710.47;4188089;28;19928;-48
2023/04/12 01:13:39;;;;;;;;;;;;;;;9.68;61.34;93720.84;4181486;28;20119;-51
2023/04/12 01:15:44;;;;;;;;;;;;;;;9.69;61.48;93706.75;4191368;28;19994;-51
2023/04/12 01:17:48;;;;;;;;;;;;;;;9.71;61.31;93707.38;4191669;28;20027;-51
2023/04/12 01:19:56;;;;;;;;;;;;;;;9.70;61.18;93708.38;4193124;28;19970;-52
2023/04/12 01:22:19;;;;;;;;;;;;;;;9.71;61.65;93698.72;4194171;28;20016;-49
2023/04/12 01:24:40;;;;;;;;;;;;;;;9.70;61.07;93687.47;4191584;28;19924;-49
2023/04/12 01:26:45;;;;;;;;;;;;;;;9.67;61.42;93695.66;4193852;28;19925;-48
2023/04/12 01:28:48;;;;;;;;;;;;;;;9.66;61.62;93695.81;4191296;28;21455;-48
2023/04/12 01:30:50;;;;;;;;;;;;;;;9.60;61.75;93700.78;4191700;28;19929;-50
2023/04/12 01:32:52;;;;;;;;;;;;;;;9.57;61.78;93706.38;4190965;28;19940;-48
2023/04/12 01:34:53;;;;;;;;;;;;;;;9.58;61.19;93705.38;4193268;28;20027;-50
2023/04/12 01:36:56;;;;;;;;;;;;;;;9.58;61.19;93709.81;4192235;28;19928;-48
2023/04/12 01:38:57;;;;;;;;;;;;;;;9.55;62.09;93707.53;4187843;28;19928;-45
2023/04/12 01:40:59;;;;;;;;;;;;;;;9.52;62.11;93716.53;4187853;28;19924;-50
2023/04/12 01:43:04;;;;;;;;;;;;;;;9.53;62.11;93712.13;4192843;28;19932;-49
2023/04/12 01:45:06;;;;;;;;;;;;;;;9.55;61.49;93710.97;4187607;28;19928;-49
2023/04/12 01:47:08;;;;;;;;;;;;;;;9.56;61.58;93717.00;4191207;28;19924;-53
2023/04/12 01:49:10;;;;;;;;;;;;;;;9.58;61.97;93709.81;4193657;28;19924;-52
2023/04/12 01:51:32;;;;;;;;;;;;;;;9.63;61.78;93712.69;4192311;28;20416;-49
2023/04/12 01:53:44;;;;;;;;;;;;;;;9.58;61.51;93709.81;4193169;28;20369;-50
2023/04/12 01:55:46;;;;;;;;;;;;;;;9.48;61.90;93722.31;4188489;28;19935;-54
2023/04/12 01:57:48;;;;;;;;;;;;;;;9.57;61.87;93713.38;4192599;28;20468;-48
2023/04/12 01:59:49;;;;;;;;;;;;;;;9.57;61.40;93703.75;4191230;28;20002;-49
2023/04/12 02:01:51;;;;;;;;;;;;;;;9.59;61.89;93711.41;4186650;28;19924;-49
2023/04/12 02:03:53;;;;;;;;;;;;;;;9.49;61.81;93705.63;4188972;28;19925;-50
2023/04/12 02:05:55;;;;;;;;;;;;;;;9.54;61.33;93709.34;4191389;28;20615;-49
2023/04/12 02:07:57;;;;;;;;;;;;;;;9.51;61.26;93703.66;4190374;28;19935;-50
2023/04/12 02:09:58;;;;;;;;;;;;;;;9.52;61.94;93708.69;4192683;28;19924;-48
2023/04/12 02:12:00;;;;;;;;;;;;;;;9.49;61.44;93706.44;4192593;28;20283;-52
2023/04/12 02:14:01;;;;;;;;;;;;;;;9.48;61.72;93710.03;4191985;28;19924;-50
2023/04/12 02:16:03;;;;;;;;;;;;;;;9.58;61.68;93704.56;4184411;28;20501;-48
2023/04/12 02:18:05;;;;;;;;;;;;;;;9.66;61.01;93709.72;4191654;28;19929;-51
2023/04/12 02:20:10;;;;;;;;;;;;;;;9.61;61.29;93706.81;4192379;28;19924;-51
2023/04/12 02:22:12;;;;;;;;;;;;;;;9.56;61.72;93706.53;4191965;28;19979;-52
2023/04/12 02:24:14;;;;;;;;;;;;;;;9.57;61.48;93702.94;4192403;28;19936;-50
2023/04/12 02:26:15;;;;;;;;;;;;;;;9.60;61.63;93698.16;4193001;28;19983;-49
2023/04/12 02:28:17;;;;;;;;;;;;;;;9.64;61.09;93703.88;4192802;28;19975;-51
2023/04/12 02:30:19;;;;;;;;;;;;;;;9.59;61.06;93703.56;4191800;28;20482;-49
2023/04/12 02:32:20;;;;;;;;;;;;;;;9.63;61.50;93708.25;4190926;28;19975;-51
2023/04/12 02:34:22;;;;;;;;;;;;;;;9.65;60.98;93710.72;4192809;28;20276;-50
2023/04/12 02:36:23;;;;;;;;;;;;;;;9.70;60.98;93697.09;4191208;28;19948;-51
2023/04/12 02:38:25;;;;;;;;;;;;;;;9.76;60.74;93702.41;4187062;28;20027;-50
2023/04/12 02:40:27;;;;;;;;;;;;;;;9.71;60.79;93690.88;4190904;28;19924;-51
2023/04/12 02:42:29;;;;;;;;;;;;;;;9.79;61.14;93696.84;4191026;28;20028;-51
2023/04/12 02:44:30;;;;;;;;;;;;;;;9.74;60.59;93690.53;4190748;28;19952;-49
2023/04/12 02:46:32;;;;;;;;;;;;;;;9.63;61.53;93689.16;4182917;28;19974;-49
2023/04/12 02:48:33;;;;;;;;;;;;;;;9.56;61.35;93685.63;4187308;28;19925;-48
2023/04/12 02:50:36;;;;;;;;;;;;;;;9.60;61.35;93697.38;4191698;28;19932;-49
2023/04/12 02:52:37;;;;;;;;;;;;;;;9.64;61.56;93688.19;4191596;28;19925;-49
2023/04/12 02:54:39;;;;;;;;;;;;;;;9.60;61.86;93694.75;4192267;28;19929;-50
2023/04/12 02:56:42;;;;;;;;;;;;;;;9.61;61.19;93684.13;4192525;28;19978;-48
2023/04/12 02:58:44;;;;;;;;;;;;;;;9.63;61.54;93681.31;4188155;28;20300;-48
2023/04/12 03:00:48;;;;;;;;;;;;;;;9.70;61.19;93687.47;4190736;28;19937;-50
2023/04/12 03:02:50;;;;;;;;;;;;;;;9.72;61.03;93685.50;4187202;28;20389;-51
2023/04/12 03:04:53;;;;;;;;;;;;;;;9.74;61.72;93686.09;4191904;28;19924;-51
2023/04/12 03:06:55;;;;;;;;;;;;;;;9.79;61.31;93688.19;4192251;28;20256;-47
2023/04/12 03:08:57;;;;;;;;;;;;;;;9.80;61.18;93677.53;4192368;28;19925;-50
2023/04/12 03:10:58;;;;;;;;;;;;;;;9.87;61.15;93677.63;4191882;28;19978;-52
2023/04/12 03:13:00;;;;;;;;;;;;;;;9.95;61.46;93681.97;4192353;28;20115;-50
2023/04/12 03:15:01;;;;;;;;;;;;;;;9.95;61.30;93679.34;4191754;28;19935;-48
2023/04/12 03:17:03;;;;;;;;;;;;;;;9.98;61.09;93674.59;4191312;28;19935;-51
2023/04/12 03:19:05;;;;;;;;;;;;;;;9.99;61.18;93678.00;4191254;28;20044;-55
2023/04/12 03:21:07;;;;;;;;;;;;;;;9.90;61.48;93682.53;4192690;28;19974;-49
2023/04/12 03:23:08;;;;;;;;;;;;;;;9.85;61.74;93682.22;4191444;28;19971;-51
2023/04/12 03:25:11;;;;;;;;;;;;;;;9.81;62.83;93689.63;4191865;28;20062;-48
2023/04/12 03:27:13;;;;;;;;;;;;;;;9.76;62.82;93689.34;4191413;28;20019;-49
2023/04/12 03:29:15;;;;;;;;;;;;;;;9.76;62.75;93686.72;4192235;28;19959;-47
2023/04/12 03:31:19;;;;;;;;;;;;;;;9.59;63.28;93690.50;4191733;28;19928;-49
2023/04/12 03:33:21;;;;;;;;;;;;;;;9.63;63.42;93697.00;4194418;28;20254;-51
2023/04/12 03:35:23;;;;;;;;;;;;;;;9.61;63.26;93688.50;4194248;28;19928;-51
2023/04/12 03:37:24;;;;;;;;;;;;;;;9.54;64.31;93698.88;4195467;28;20023;-46
2023/04/12 03:39:26;;;;;;;;;;;;;;;9.43;64.48;93696.69;4195174;28;19998;-47
2023/04/12 03:41:28;;;;;;;;;;;;;;;9.39;64.02;93691.00;4195102;28;19951;-46
2023/04/12 03:43:34;;;;;;;;;;;;;;;9.40;63.49;93697.88;4194034;28;19933;-48
2023/04/12 03:45:36;;;;;;;;;;;;;;;9.47;63.36;93705.00;4194788;28;20391;-47
2023/04/12 03:47:38;;;;;;;;;;;;;;;9.42;63.28;93695.88;4192800;28;19928;-49
2023/04/12 03:49:39;;;;;;;;;;;;;;;9.50;62.92;93712.47;4190439;28;19974;-49
2023/04/12 03:51:41;;;;;;;;;;;;;;;9.42;63.05;93719.41;4194122;28;19936;-49
2023/04/12 03:53:43;;;;;;;;;;;;;;;9.40;63.59;93703.09;4194593;28;20002;-52
2023/04/12 03:55:45;;;;;;;;;;;;;;;9.44;63.37;93714.00;4195073;28;20335;-49
2023/04/12 03:57:47;;;;;;;;;;;;;;;9.52;63.20;93713.13;4194487;28;19969;-49
2023/04/12 03:59:49;;;;;;;;;;;;;;;9.49;63.38;93701.22;4194023;28;19971;-48
2023/04/12 04:01:50;;;;;;;;;;;;;;;9.48;63.19;93704.81;4184628;28;19931;-48
2023/04/12 04:03:52;;;;;;;;;;;;;;;9.47;63.82;93710.22;4194520;28;19931;-49
2023/04/12 04:05:54;;;;;;;;;;;;;;;9.47;63.39;93702.38;4195389;28;20271;-51
2023/04/12 04:08:01;;;;;;;;;;;;;;;9.61;63.02;93710.28;4194571;28;20027;-46
2023/04/12 04:10:04;;;;;;;;;;;;;;;9.53;63.59;93707.72;4194668;28;20287;-49
2023/04/12 04:12:06;;;;;;;;;;;;;;;9.51;63.71;93709.69;4193468;28;19963;-51
2023/04/12 04:14:08;;;;;;;;;;;;;;;9.53;62.98;93712.13;4194236;28;20531;-52
2023/04/12 04:16:09;;;;;;;;;;;;;;;9.53;63.41;93718.19;4193690;28;19986;-52
2023/04/12 04:18:11;;;;;;;;;;;;;;;9.59;62.74;93727.09;4193224;28;19924;-49
2023/04/12 04:20:13;;;;;;;;;;;;;;;9.60;63.14;93739.19;4194901;28;19924;-51
2023/04/12 04:22:16;;;;;;;;;;;;;;;9.45;63.23;93756.66;4194950;28;19928;-49
2023/04/12 04:24:18;;;;;;;;;;;;;;;9.40;63.89;93754.56;4198418;28;19968;-51
2023/04/12 04:26:19;;;;;;;;;;;;;;;9.37;63.77;93754.91;4192724;28;19947;-49
2023/04/12 04:28:22;;;;;;;;;;;;;;;9.36;63.72;93759.31;4194567;28;19936;-51
2023/04/12 04:30:24;;;;;;;;;;;;;;;9.46;63.93;93753.84;4193405;28;20063;-51
2023/04/12 04:32:25;;;;;;;;;;;;;;;9.46;63.98;93758.25;4193977;28;19928;-51
2023/04/12 04:34:27;;;;;;;;;;;;;;;9.44;63.60;93761.03;4193697;28;20428;-50
2023/04/12 04:36:28;;;;;;;;;;;;;;;9.44;63.11;93761.03;4194374;28;19928;-50
2023/04/12 04:38:31;;;;;;;;;;;;;;;9.35;63.29;93754.25;4187372;28;19928;-49
2023/04/12 04:40:35;;;;;;;;;;;;;;;9.46;63.91;93760.88;4194139;28;19931;-51
2023/04/12 04:42:38;;;;;;;;;;;;;;;9.45;62.56;93767.09;4192314;28;20206;-51
2023/04/12 04:44:40;;;;;;;;;;;;;;;9.44;63.49;93768.88;4192545;28;20424;-51
2023/04/12 04:46:42;;;;;;;;;;;;;;;9.36;62.72;93767.16;4193504;28;19929;-50
2023/04/12 04:48:43;;;;;;;;;;;;;;;9.39;62.51;93773.84;4189867;28;19932;-50
2023/04/12 04:50:45;;;;;;;;;;;;;;;9.42;63.13;93782.16;4192976;28;19924;-48
2023/04/12 04:52:47;;;;;;;;;;;;;;;9.45;62.74;93765.28;4193442;28;19932;-49
2023/04/12 04:54:49;;;;;;;;;;;;;;;9.48;62.24;93774.59;4194241;28;19928;-51
2023/04/12 04:56:50;;;;;;;;;;;;;;;9.47;62.46;93768.56;4192325;28;20365;-50
2023/04/12 04:58:52;;;;;;;;;;;;;;;9.35;62.54;93769.94;4194189;28;19924;-53
2023/04/12 05:00:58;;;;;;;;;;;;;;;9.29;62.60;93768.84;4193764;28;19967;-54
2023/04/12 05:03:00;;;;;;;;;;;;;;;9.40;62.30;93771.06;4191455;28;19998;-50
2023/04/12 05:05:03;;;;;;;;;;;;;;;9.38;61.61;93770.41;4193543;28;19924;-49
2023/04/12 05:07:04;;;;;;;;;;;;;;;9.37;61.52;93781.03;4194075;28;19924;-48
2023/04/12 05:09:06;;;;;;;;;;;;;;;9.32;61.44;93785.97;4194081;28;19974;-52
2023/04/12 05:11:07;;;;;;;;;;;;;;;9.45;61.56;93785.41;4192703;28;20312;-49
2023/04/12 05:13:09;;;;;;;;;;;;;;;9.49;61.42;93786.69;4191561;28;19924;-52
2023/04/12 05:15:10;;;;;;;;;;;;;;;9.45;61.22;93804.50;4193351;28;19970;-54
2023/04/12 05:17:12;;;;;;;;;;;;;;;9.46;60.51;93787.81;4192435;28;20013;-50
2023/04/12 05:19:14;;;;;;;;;;;;;;;9.41;60.80;93790.16;4193498;28;19924;-50
2023/04/12 05:21:15;;;;;;;;;;;;;;;9.48;60.91;93791.06;4193890;28;19932;-51
2023/04/12 05:23:17;;;;;;;;;;;;;;;9.33;60.18;93791.00;4194126;28;20446;-50
2023/04/12 05:25:19;;;;;;;;;;;;;;;9.41;60.34;93792.78;4193304;28;20296;-50
2023/04/12 05:27:21;;;;;;;;;;;;;;;9.47;59.75;93784.22;4193765;28;19925;-51
2023/04/12 05:29:22;;;;;;;;;;;;;;;9.54;59.15;93793.00;4193082;28;19931;-49
2023/04/12 05:31:24;;;;;;;;;;;;;;;9.68;58.73;93782.75;4193641;28;19960;-47
2023/04/12 05:33:25;;;;;;;;;;;;;;;9.56;58.73;93791.03;4192552;28;19978;-50
2023/04/12 05:35:27;;;;;;;;;;;;;;;9.53;58.16;93788.78;4192915;28;19928;-51
2023/04/12 05:37:28;;;;;;;;;;;;;;;9.53;58.26;93798.38;4193255;28;20020;-51
2023/04/12 05:39:30;;;;;;;;;;;;;;;9.46;58.42;93800.09;4193266;28;19929;-53
2023/04/12 05:41:32;;;;;;;;;;;;;;;9.53;58.85;93791.38;4193014;28;19925;-52
2023/04/12 05:43:36;;;;;;;;;;;;;;;9.53;57.55;93780.94;4193013;28;19925;-54
2023/04/12 05:45:39;;;;;;;;;;;;;;;9.61;57.94;93795.72;4192364;28;19928;-56
2023/04/12 05:47:44;;;;;;;;;;;;;;;9.60;57.26;93800.16;4190842;28;20031;-60
2023/04/12 05:49:49;;;;;;;;;;;;;;;9.60;57.55;93794.13;4190215;28;19924;-56
2023/04/12 05:51:51;;;;;;;;;;;;;;;9.68;56.86;93782.75;4189763;28;19924;-57
2023/04/12 05:53:52;;;;;;;;;;;;;;;9.75;56.41;93794.97;4191744;28;19925;-56
2023/04/12 05:55:54;;;;;;;;;;;;;;;9.69;56.38;93787.00;4191044;28;20058;-59
2023/04/12 05:57:57;;;;;;;;;;;;;;;9.72;56.61;93800.56;4191908;28;20199;-57
2023/04/12 05:59:59;;;;;;;;;;;;;;;9.71;56.19;93821.66;4188608;28;20019;-58
2023/04/12 06:02:00;;;;;;;;;;;;;;;9.65;55.96;93815.31;4192073;28;19933;-58
2023/04/12 06:04:02;;;;;;;;;;;;;;;9.55;55.79;93804.25;4193390;28;20381;-59
2023/04/12 06:06:05;;;;;;;;;;;;;;;9.53;56.59;93806.25;4192144;28;19924;-55
2023/04/12 06:08:07;;;;;;;;;;;;;;;9.44;56.02;93810.72;4191099;28;19964;-59
2023/04/12 06:10:09;;;;;;;;;;;;;;;9.46;56.56;93813.16;4190990;28;19992;-58
2023/04/12 06:12:11;;;;;;;;;;;;;;;9.36;56.84;93823.84;4191740;28;19924;-57
2023/04/12 06:14:12;;;;;;;;;;;;;;;9.45;57.25;93832.47;4191686;28;20287;-58
2023/04/12 06:16:14;;;;;;;;;;;;;;;9.40;56.67;93819.91;4191075;28;19925;-55
2023/04/12 06:18:16;;;;;;;;;;;;;;;9.35;56.92;93833.47;4191474;28;19978;-59
2023/04/12 06:20:17;;;;;;;;;;;;;;;9.26;57.23;93834.53;4191495;28;19978;-60
2023/04/12 06:22:19;;;;;;;;;;;;;;;9.19;57.20;93831.78;4191534;28;19925;-59
2023/04/12 06:24:20;;;;;;;;;;;;;;;9.17;57.86;93828.53;4192394;28;20372;-58
2023/04/12 06:26:22;;;;;;;;;;;;;;;9.23;57.97;93832.25;4192154;28;19940;-62
2023/04/12 06:28:23;;;;;;;;;;;;;;;9.42;57.24;93830.97;4192847;28;20022;-60
2023/04/12 06:30:25;;;;;;;;;;;;;;;9.42;57.17;93823.97;4191341;28;20384;-60
2023/04/12 06:32:27;;;;;;;;;;;;;;;9.40;57.34;93819.91;4191451;28;20301;-59
2023/04/12 06:34:28;;;;;;;;;;;;;;;9.47;56.92;93820.84;4184682;28;20254;-58
2023/04/12 06:36:30;;;;;;;;;;;;;;;9.43;56.55;93819.56;4188671;28;19998;-59
2023/04/12 06:38:31;;;;;;;;;;;;;;;9.37;56.93;93826.28;4185074;28;20031;-58
2023/04/12 06:40:33;;;;;;;;;;;;;;;9.40;57.04;93822.53;4192671;28;19925;-59
2023/04/12 06:42:35;;;;;;;;;;;;;;;9.30;57.40;93822.72;4190832;28;19925;-55
2023/04/12 06:44:37;;;;;;;;;;;;;;;9.50;56.82;93820.47;4191945;28;19989;-58
2023/04/12 06:46:38;;;;;;;;;;;;;;;9.60;57.23;93817.66;4192612;28;20364;-56
2023/04/12 06:48:40;;;;;;;;;;;;;;;9.36;56.70;93840.34;4185045;28;20478;-57
2023/04/12 06:50:43;;;;;;;;;;;;;;;9.33;57.40;93819.75;4190205;28;19936;-57
2023/04/12 06:52:45;;;;;;;;;;;;;;;9.46;57.37;93811.34;4190740;28;20015;-57
2023/04/12 06:54:47;;;;;;;;;;;;;;;9.51;57.06;93809.03;4192065;28;19970;-59
2023/04/12 06:56:48;;;;;;;;;;;;;;;9.62;56.37;93813.06;4191165;28;20203;-58
2023/04/12 06:58:50;;;;;;;;;;;;;;;9.67;55.95;93809.91;4192171;28;20379;-59
2023/04/12 07:00:51;;;;;;;;;;;;;;;9.74;56.52;93814.25;4192534;28;20305;-58
2023/04/12 07:02:53;;;;;;;;;;;;;;;9.86;56.16;93798.16;4193641;28;20076;-58
2023/04/12 07:04:55;;;;;;;;;;;;;;;9.92;55.81;93798.25;4193179;28;19924;-58
2023/04/12 07:06:56;;;;;;;;;;;;;;;10.10;55.73;93807.59;4191638;28;20321;-58
2023/04/12 07:08:58;;;;;;;;;;;;;;;10.14;55.32;93793.97;4193027;28;19929;-58
2023/04/12 07:11:00;;;;;;;;;;;;;;;10.13;54.55;93804.59;4191984;28;20035;-57
2023/04/12 07:13:21;;;;;;;;;;;;;;;10.30;54.58;93797.44;4192361;28;19970;-54
2023/04/12 07:15:22;;;;;;;;;;;;;;;10.45;54.72;93800.88;4191679;28;19970;-59
2023/04/12 07:17:25;;;;;;;;;;;;;;;10.30;54.73;93798.25;4188120;28;19929;-57
2023/04/12 07:19:30;;;;;;;;;;;;;;;10.25;54.67;93811.03;4192029;28;20003;-57
2023/04/12 07:21:32;;;;;;;;;;;;;;;10.04;55.19;93819.56;4192589;28;20394;-58
2023/04/12 07:23:33;;;;;;;;;;;;;;;10.11;54.80;93812.66;4192466;28;19954;-57
2023/04/12 07:25:38;;;;;;;;;;;;;;;9.94;55.40;93816.41;4191436;28;20368;-58
2023/04/12 07:27:39;;;;;;;;;;;;;;;9.93;55.99;93802.50;4192101;28;19928;-58
2023/04/12 07:29:41;;;;;;;;;;;;;;;10.02;55.50;93811.06;4191536;28;19936;-59
2023/04/12 07:31:43;;;;;;;;;;;;;;;9.98;55.53;93813.25;4191436;28;19928;-57
2023/04/12 07:33:45;;;;;;;;;;;;;;;10.01;55.23;93796.38;4191799;28;19924;-59
2023/04/12 07:35:46;;;;;;;;;;;;;;;10.12;55.41;93795.13;4192423;28;19925;-59
2023/04/12 07:37:48;;;;;;;;;;;;;;;10.29;54.65;93786.16;4191550;28;19972;-58
2023/04/12 07:39:50;;;;;;;;;;;;;;;10.44;54.27;93788.78;4191608;28;19982;-59
2023/04/12 07:41:51;;;;;;;;;;;;;;;10.58;54.06;93780.13;4191963;28;19928;-56
2023/04/12 07:43:53;;;;;;;;;;;;;;;10.62;53.29;93786.59;4192485;28;19985;-59
2023/04/12 07:45:55;;;;;;;;;;;;;;;10.72;52.48;93788.97;4190403;28;20435;-56
2023/04/12 07:47:56;;;;;;;;;;;;;;;10.71;52.50;93789.13;4189605;28;19924;-60
2023/04/12 07:49:58;;;;;;;;;;;;;;;10.73;52.34;93789.75;4191252;28;19985;-58
2023/04/12 07:52:00;;;;;;;;;;;;;;;10.68;52.33;93786.91;4187941;28;19925;-57
2023/04/12 07:54:02;;;;;;;;;;;;;;;10.66;52.38;93777.41;4192053;28;19928;-58
2023/04/12 07:56:05;;;;;;;;;;;;;;;10.66;51.21;93774.78;4192052;28;19929;-56
2023/04/12 07:58:08;;;;;;;;;;;;;;;10.40;50.75;93763.97;4191409;28;19932;-60
2023/04/12 08:00:10;;;;;;;;;;;;;;;10.36;50.31;93760.06;4191559;28;20347;-61
2023/04/12 08:02:12;;;;;;;;;;;;;;;10.51;49.66;93752.22;4191037;28;19929;-59
2023/04/12 08:04:13;;;;;;;;;;;;;;;10.39;50.35;93754.47;4191847;28;20102;-58
2023/04/12 08:06:16;;;;;;;;;;;;;;;10.13;50.83;93760.94;4191125;28;19964;-58
2023/04/12 08:08:21;;;;;;;;;;;;;;;10.03;51.09;93752.53;4191404;28;19994;-62
2023/04/12 08:10:23;;;;;;;;;;;;;;;10.00;50.85;93751.09;4190681;28;20267;-58
2023/04/12 08:12:25;;;;;;;;;;;;;;;9.89;50.77;93754.13;4191345;28;19981;-59
2023/04/12 08:14:26;;;;;;;;;;;;;;;10.02;50.52;93763.97;4190619;28;19933;-59
2023/04/12 08:16:28;;;;;;;;;;;;;;;10.08;49.85;93757.22;4191581;28;20035;-59
2023/04/12 08:18:29;;;;;;;;;;;;;;;10.21;48.88;93760.84;4191172;28;20555;-57
2023/04/12 08:20:31;;;;;;;;;;;;;;;10.36;47.63;93778.41;4194745;28;19936;-57
2023/04/12 08:22:33;;;;;;;;;;;;;;;10.27;47.26;93751.47;4186514;28;20196;-56
2023/04/12 08:24:34;;;;;;;;;;;;;;;10.42;46.18;93762.78;4194393;28;19989;-57
2023/04/12 08:26:37;;;;;;;;;;;;;;;10.44;45.94;93749.53;4188338;28;20391;-58
2023/04/12 08:28:38;;;;;;;;;;;;;;;10.73;45.55;93760.94;4193991;28;20269;-59
2023/04/12 08:30:40;;;;;;;;;;;;;;;10.67;45.58;93752.03;4193690;28;20387;-59
2023/04/12 08:32:42;;;;;;;;;;;;;;;10.82;45.56;93749.41;4191925;28;19959;-58
2023/04/12 08:34:44;;;;;;;;;;;;;;;10.64;46.27;93740.09;4195023;28;19932;-53
2023/04/12 08:36:46;;;;;;;;;;;;;;;10.68;46.52;93753.66;4191962;28;20019;-51
2023/04/12 08:38:51;;;;;;;;;;;;;;;10.90;46.15;93759.75;4189997;28;19925;-52
2023/04/12 08:40:52;;;;;;;;;;;;;;;10.99;43.96;93756.03;4189851;28;19997;-52
2023/04/12 08:42:54;;;;;;;;;;;;;;;11.24;43.27;93745.19;4192312;28;19924;-55
2023/04/12 08:44:56;;;;;;;;;;;;;;;10.98;44.02;93748.34;4192086;28;19932;-54
2023/04/12 08:46:57;;;;;;;;;;;;;;;10.78;44.97;93748.94;4193541;28;19928;-53
2023/04/12 08:48:59;;;;;;;;;;;;;;;10.62;44.87;93744.69;4193297;28;19928;-49
2023/04/12 08:51:00;;;;;;;;;;;;;;;10.63;45.31;93748.97;4194198;28;19924;-53
2023/04/12 08:53:02;;;;;;;;;;;;;;;10.82;45.49;93747.56;4191937;28;20007;-55
2023/04/12 08:55:07;;;;;;;;;;;;;;;11.09;45.46;93740.00;4193166;28;20112;-51
2023/04/12 08:57:09;;;;;;;;;;;;;;;10.78;45.33;93767.28;4194211;28;19978;-50
2023/04/12 08:59:10;;;;;;;;;;;;;;;10.61;46.57;93747.53;4194455;28;19971;-55
2023/04/12 09:01:13;;;;;;;;;;;;;;;10.78;46.39;93745.50;4192277;28;20392;-53
2023/04/12 09:03:15;;;;;;;;;;;;;;;11.10;45.02;93735.56;4192671;28;20506;-53
2023/04/12 09:05:17;;;;;;;;;;;;;;;11.16;44.51;93745.31;4194424;28;19924;-52
2023/04/12 09:07:21;;;;;;;;;;;;;;;11.53;43.73;93739.03;4186778;28;20357;-54
2023/04/12 09:09:42;;;;;;;;;;;;;;;11.45;43.19;93737.34;4191736;28;20418;-55
2023/04/12 09:11:44;;;;;;;;;;;;;;;11.17;43.16;93744.31;4183892;28;19928;-56
2023/04/12 09:13:45;;;;;;;;;;;;;;;11.21;43.33;93738.53;4192669;28;20420;-50
2023/04/12 09:15:48;;;;;;;;;;;;;;;11.39;43.60;93745.16;4193399;28;20308;-56
2023/04/12 09:17:59;;;;;;;;;;;;;;;11.55;43.05;93730.97;4192707;28;19978;-50
2023/04/12 09:20:03;;;;;;;;;;;;;;;11.58;42.83;93730.59;4192939;28;19928;-53
2023/04/12 09:22:05;;;;;;;;;;;;;;;11.78;42.21;93722.88;4194179;28;19982;-53
2023/04/12 09:24:12;;;;;;;;;;;;;;;11.72;41.31;93729.69;4188990;28;20003;-59
2023/04/12 09:26:25;;;;;;;;;;;;;;;11.70;40.22;93718.56;4183348;28;20440;-60
2023/04/12 09:28:27;;;;;;;;;;;;;;;11.71;40.20;93722.03;4194306;28;20378;-59
2023/04/12 09:30:29;;;;;;;;;;;;;;;11.91;39.88;93704.63;4192515;28;20149;-59
2023/04/12 09:32:30;;;;;;;;;;;;;;;11.78;39.61;93710.56;4192415;28;20311;-60
2023/04/12 09:34:33;;;;;;;;;;;;;;;11.88;39.54;93703.22;4192152;28;19925;-59
2023/04/12 09:36:38;;;;;;;;;;;;;;;12.28;39.15;93711.34;4193140;28;20144;-59
2023/04/12 09:38:42;;;;;;;;;;;;;;;11.99;39.83;93715.00;4184216;28;20023;-57
2023/04/12 09:40:44;;;;;;;;;;;;;;;11.78;39.49;93705.31;4181771;28;20420;-60
2023/04/12 09:42:52;;;;;;;;;;;;;;;11.85;39.78;93695.69;4192351;28;20065;-59
2023/04/12 09:44:55;;;;;;;;;;;;;;;11.77;39.42;93701.09;4188028;28;19954;-59
2023/04/12 09:46:59;;;;;;;;;;;;;;;12.09;39.40;93688.41;4192587;28;19928;-61
2023/04/12 09:49:02;;;;;;;;;;;;;;;11.85;39.74;93687.81;4193476;28;19971;-56
2023/04/12 09:51:04;;;;;;;;;;;;;;;11.90;40.28;93694.34;4191315;28;19959;-56
2023/04/12 09:53:11;;;;;;;;;;;;;;;11.86;40.80;93696.50;4187202;28;19996;-59
2023/04/12 09:55:12;;;;;;;;;;;;;;;11.82;40.80;93687.38;4189327;28;20026;-60
2023/04/12 09:57:16;;;;;;;;;;;;;;;11.90;41.09;93682.03;4192621;28;19928;-61
2023/04/12 09:59:17;;;;;;;;;;;;;;;11.45;41.26;93708.50;4192913;28;19931;-60
2023/04/12 10:01:22;;;;;;;;;;;;;;;11.61;39.18;93683.00;4190012;28;21579;-59
2023/04/12 10:03:23;;;;;;;;;;;;;;;11.63;36.45;93667.88;4192097;28;20415;-60
2023/04/12 10:05:25;;;;;;;;;;;;;;;12.07;36.36;93667.59;4192600;28;19931;-60
2023/04/12 10:07:28;;;;;;;;;;;;;;;12.30;35.99;93671.75;4193376;28;19936;-59
2023/04/12 10:09:30;;;;;;;;;;;;;;;12.22;33.92;93672.72;4192339;28;19928;-56
2023/04/12 10:11:32;;;;;;;;;;;;;;;12.43;31.98;93665.75;4193022;28;19928;-58
2023/04/12 10:13:35;;;;;;;;;;;;;;;12.25;32.20;93676.78;4193143;28;19974;-59
2023/04/12 10:15:36;;;;;;;;;;;;;;;12.11;32.57;93670.66;4191998;28;20016;-58
2023/04/12 10:17:58;;;;;;;;;;;;;;;11.88;33.31;93694.53;4190038;28;20019;-61
2023/04/12 10:20:00;;;;;;;;;;;;;;;11.70;33.99;93671.34;4193341;28;20031;-61
2023/04/12 10:22:02;;;;;;;;;;;;;;;12.05;33.94;93680.09;4193233;28;20420;-61
2023/04/12 10:24:05;;;;;;;;;;;;;;;12.43;33.57;93657.84;4192361;28;19928;-58
2023/04/12 10:26:07;;;;;;;;;;;;;;;12.61;33.30;93639.75;4193315;28;19985;-58
2023/04/12 10:28:12;;;;;;;;;;;;;;;12.86;33.81;93631.31;4190984;28;19924;-60
2023/04/12 10:30:17;;;;;;;;;;;;;;;12.69;34.02;93659.78;4191731;28;19983;-60
2023/04/12 10:32:20;;;;;;;;;;;;;;;12.09;34.93;93667.41;4188926;28;19929;-60
2023/04/12 10:34:22;;;;;;;;;;;;;;;11.97;34.82;93642.69;4192462;28;19996;-58
2023/04/12 10:36:42;;;;;;;;;;;;;;;12.27;35.15;93638.00;4192304;28;20537;-59
2023/04/12 10:38:45;;;;;;;;;;;;;;;12.65;34.45;93672.50;4183714;28;19924;-59
2023/04/12 10:41:05;;;;;;;;;;;;;;;12.70;33.91;93633.31;4192779;28;20029;-58
2023/04/12 10:43:22;;;;;;;;;;;;;;;12.87;32.09;93653.97;4191901;28;19939;-58
2023/04/12 10:45:23;;;;;;;;;;;;;;;12.44;32.56;93635.84;4191757;28;19925;-57